createdAt,value
2022-10-20T00:01:46.647Z,15.25
2022-10-20T00:04:14.313Z,16.20
2022-10-20T00:06:41.943Z,16.83
2022-10-20T00:09:09.751Z,17.58
2022-10-20T00:11:37.466Z,19.02
2022-10-20T00:14:06.956Z,20.65
2022-10-20T00:16:37.998Z,23.52
2022-10-20T00:19:05.871Z,21.77
2022-10-20T00:21:33.621Z,23.77
2022-10-20T00:24:02.223Z,24.50
2022-10-20T00:26:33.562Z,24.42
2022-10-20T00:29:02.379Z,27.92
2022-10-20T00:31:34.694Z,28.75
2022-10-20T00:34:02.504Z,28.67
2022-10-20T00:36:30.291Z,34.30
2022-10-20T00:38:59.871Z,35.58
2022-10-20T00:41:28.615Z,33.10
2022-10-20T00:43:58.329Z,34.60
2022-10-20T00:46:29.542Z,36.83
2022-10-20T00:49:05.918Z,37.08
2022-10-20T00:51:34.783Z,38.38
2022-10-20T00:54:08.571Z,39.72
2022-10-20T00:56:39.541Z,39.72
2022-10-20T00:59:07.665Z,41.42
2022-10-20T01:01:36.666Z,37.80
2022-10-20T01:04:06.032Z,40.25
2022-10-20T01:06:33.779Z,36.50
2022-10-20T01:09:03.104Z,38.00
2022-10-20T01:11:42.723Z,36.83
2022-10-20T01:14:21.011Z,38.17
2022-10-20T01:16:59.896Z,35.38
2022-10-20T01:19:53.703Z,36.75
2022-10-20T01:22:38.302Z,37.00
2022-10-20T01:25:21.205Z,35.92
2022-10-20T01:27:56.855Z,36.40
2022-10-20T01:33:08.160Z,34.15
2022-10-20T01:35:46.095Z,35.30
2022-10-20T01:38:22.786Z,35.72
2022-10-20T01:40:57.487Z,34.47
2022-10-20T01:43:29.656Z,35.87
2022-10-20T01:45:59.721Z,36.33
2022-10-20T01:48:31.659Z,36.15
2022-10-20T01:51:01.184Z,37.10
2022-10-20T01:53:28.917Z,36.10
2022-10-20T01:55:58.514Z,33.78
2022-10-20T01:58:57.471Z,35.17
2022-10-20T02:01:36.942Z,34.15
2022-10-20T02:04:08.144Z,34.67
2022-10-20T02:06:43.979Z,36.10
2022-10-20T02:09:18.784Z,35.22
2022-10-20T02:11:50.415Z,33.67
2022-10-20T02:14:22.450Z,37.15
2022-10-20T02:16:54.456Z,33.97
2022-10-20T02:19:24.798Z,35.17
2022-10-20T02:21:53.909Z,34.83
2022-10-20T02:24:24.727Z,36.40
2022-10-20T02:26:54.735Z,36.38
2022-10-20T02:29:28.662Z,36.13
2022-10-20T02:31:56.990Z,32.30
2022-10-20T02:34:26.993Z,35.72
2022-10-20T02:36:58.381Z,33.83
2022-10-20T02:39:29.146Z,36.65
2022-10-20T02:41:58.907Z,34.55
2022-10-20T02:44:30.993Z,37.13
2022-10-20T02:46:58.741Z,33.40
2022-10-20T02:49:27.314Z,35.70
2022-10-20T02:51:54.943Z,34.55
2022-10-20T02:54:22.722Z,34.30
2022-10-20T02:56:50.360Z,34.65
2022-10-20T02:59:18.383Z,33.83
2022-10-20T03:01:47.846Z,33.75
2022-10-20T03:04:15.920Z,35.40
2022-10-20T03:06:43.670Z,35.67
2022-10-20T03:09:11.328Z,34.78
2022-10-20T03:11:38.992Z,32.90
2022-10-20T03:14:06.675Z,37.15
2022-10-20T03:16:35.931Z,34.25
2022-10-20T03:19:07.273Z,34.30
2022-10-20T03:21:40.046Z,33.92
2022-10-20T03:24:07.817Z,33.95
2022-10-20T03:26:35.484Z,32.97
2022-10-20T03:29:06.058Z,35.45
2022-10-20T03:31:33.773Z,33.95
2022-10-20T03:34:01.449Z,34.75
2022-10-20T03:36:31.442Z,35.53
2022-10-20T03:38:59.135Z,31.73
2022-10-20T03:41:26.795Z,34.60
2022-10-20T03:43:54.461Z,33.40
2022-10-20T03:46:22.097Z,32.20
2022-10-20T03:48:52.660Z,33.92
2022-10-20T03:51:20.419Z,34.83
2022-10-20T03:53:49.500Z,33.42
2022-10-20T03:56:22.407Z,32.88
2022-10-20T03:58:50.202Z,32.33
2022-10-20T04:01:21.135Z,33.53
2022-10-20T04:03:48.829Z,30.92
2022-10-20T04:06:16.922Z,32.20
2022-10-20T04:08:47.508Z,32.33
2022-10-20T04:11:16.563Z,31.48
2022-10-20T04:13:44.302Z,32.33
2022-10-20T04:16:12.020Z,30.92
2022-10-20T04:18:39.669Z,30.92
2022-10-20T04:21:07.593Z,32.08
2022-10-20T04:23:35.268Z,31.35
2022-10-20T04:26:09.300Z,32.30
2022-10-20T04:28:39.007Z,29.95
2022-10-20T04:31:07.110Z,31.05
2022-10-20T04:33:35.352Z,30.50
2022-10-20T04:36:05.467Z,30.20
2022-10-20T04:38:34.416Z,28.88
2022-10-20T04:41:04.794Z,28.60
2022-10-20T04:43:32.799Z,30.20
2022-10-20T04:46:06.943Z,30.42
2022-10-20T04:48:36.396Z,28.83
2022-10-20T04:51:06.381Z,28.60
2022-10-20T04:53:34.752Z,29.73
2022-10-20T04:56:03.372Z,29.55
2022-10-20T04:58:31.011Z,30.73
2022-10-20T05:01:03.089Z,30.15
2022-10-20T05:03:30.811Z,27.88
2022-10-20T05:06:10.259Z,29.95
2022-10-20T05:08:37.934Z,29.75
2022-10-20T05:11:05.864Z,29.35
2022-10-20T05:13:33.509Z,28.63
2022-10-20T05:16:03.088Z,28.10
2022-10-20T05:18:30.750Z,28.48
2022-10-20T05:21:08.479Z,28.80
2022-10-20T05:23:37.512Z,28.30
2022-10-20T05:26:06.660Z,29.42
2022-10-20T05:28:34.551Z,29.23
2022-10-20T05:31:04.656Z,28.35
2022-10-20T05:33:32.402Z,27.88
2022-10-20T05:36:00.072Z,27.63
2022-10-20T05:38:28.329Z,26.90
2022-10-20T05:40:55.992Z,29.15
2022-10-20T05:43:23.655Z,26.90
2022-10-20T05:45:55.094Z,26.05
2022-10-20T05:48:24.135Z,27.42
2022-10-20T05:50:51.769Z,26.60
2022-10-20T05:53:19.754Z,27.50
2022-10-20T05:55:47.546Z,26.38
2022-10-20T05:58:17.597Z,26.17
2022-10-20T06:00:52.710Z,27.45
2022-10-20T06:03:23.687Z,25.88
2022-10-20T06:05:59.383Z,27.90
2022-10-20T06:08:27.153Z,29.30
2022-10-20T06:10:54.843Z,31.10
2022-10-20T06:13:22.538Z,32.92
2022-10-20T06:15:50.206Z,30.77
2022-10-20T06:18:17.867Z,30.90
2022-10-20T06:20:45.562Z,29.83
2022-10-20T06:23:14.621Z,29.02
2022-10-20T06:25:42.261Z,28.60
2022-10-20T06:28:09.949Z,31.08
2022-10-20T06:30:37.636Z,30.85
2022-10-20T06:33:05.354Z,29.67
2022-10-20T06:35:33.254Z,34.47
2022-10-20T06:38:00.888Z,30.70
2022-10-20T06:40:30.059Z,31.50
2022-10-20T06:42:57.732Z,30.38
2022-10-20T06:45:25.525Z,30.63
2022-10-20T06:47:53.150Z,31.10
2022-10-20T06:50:20.842Z,29.20
2022-10-20T06:52:48.642Z,29.73
2022-10-20T06:55:16.303Z,28.60
2022-10-20T06:57:45.281Z,28.30
2022-10-20T07:00:14.658Z,28.65
2022-10-20T07:02:42.308Z,27.67
2022-10-20T07:05:10.236Z,29.13
2022-10-20T07:07:37.918Z,27.20
2022-10-20T07:10:06.092Z,26.73
2022-10-20T07:12:34.020Z,28.35
2022-10-20T07:15:03.335Z,28.30
2022-10-20T07:17:31.015Z,26.98
2022-10-20T07:19:58.900Z,25.98
2022-10-20T07:22:26.588Z,25.17
2022-10-20T07:24:54.512Z,21.70
2022-10-20T07:27:22.669Z,22.30
2022-10-20T07:29:52.524Z,20.85
2022-10-20T07:32:21.593Z,20.30
2022-10-20T07:34:49.257Z,20.65
2022-10-20T07:37:16.916Z,20.58
2022-10-20T07:39:44.741Z,18.98
2022-10-20T07:42:12.475Z,18.65
2022-10-20T07:44:41.844Z,17.52
2022-10-20T07:47:09.527Z,17.17
2022-10-20T07:49:43.918Z,17.92
2022-10-20T07:52:16.423Z,18.55
2022-10-20T07:54:44.181Z,18.50
2022-10-20T07:57:11.884Z,19.92
2022-10-20T07:59:39.610Z,18.23
2022-10-20T08:02:07.363Z,18.42
2022-10-20T08:04:35.315Z,18.27
2022-10-20T08:07:04.364Z,17.27
2022-10-20T08:09:33.773Z,16.17
2022-10-20T08:12:01.701Z,17.90
2022-10-20T08:14:31.958Z,16.35
2022-10-20T08:17:02.687Z,16.30
2022-10-20T08:19:43.654Z,15.60
2022-10-20T08:22:12.989Z,16.23
2022-10-20T08:24:40.705Z,16.38
2022-10-20T08:27:09.130Z,16.98
2022-10-20T08:32:15.439Z,16.42
2022-10-20T08:34:43.076Z,16.17
2022-10-20T08:37:12.150Z,15.60
2022-10-20T08:39:39.893Z,16.40
2022-10-20T08:42:09.235Z,16.10
2022-10-20T08:44:39.269Z,15.52
2022-10-20T08:47:18.226Z,16.30
2022-10-20T08:49:47.661Z,15.50
2022-10-20T08:52:18.351Z,15.82
2022-10-20T08:54:54.172Z,15.98
2022-10-20T08:57:24.707Z,15.75
2022-10-20T08:59:53.717Z,16.17
2022-10-20T09:02:21.925Z,15.15
2022-10-20T09:04:52.500Z,14.80
2022-10-20T09:07:28.761Z,14.15
2022-10-20T09:10:04.195Z,15.98
2022-10-20T09:12:34.792Z,16.48
2022-10-20T09:15:02.653Z,13.57
2022-10-20T09:17:30.490Z,14.85
2022-10-20T09:20:01.944Z,14.27
2022-10-20T09:22:35.963Z,13.80
2022-10-20T09:25:04.649Z,14.93
2022-10-20T09:27:36.237Z,15.63
2022-10-20T09:30:16.456Z,14.07
2022-10-20T09:32:47.384Z,13.93
2022-10-20T09:35:23.031Z,12.82
2022-10-20T09:38:19.213Z,13.68
2022-10-20T09:40:58.187Z,12.35
2022-10-20T09:43:28.180Z,13.02
2022-10-20T09:46:00.161Z,12.73
2022-10-20T09:48:30.683Z,13.38
2022-10-20T09:51:00.070Z,14.05
2022-10-20T09:53:33.313Z,12.80
2022-10-20T09:56:01.316Z,12.82
2022-10-20T09:58:31.683Z,13.30
2022-10-20T10:01:03.281Z,13.52
2022-10-20T10:03:40.313Z,12.40
2022-10-20T10:06:22.449Z,12.13
2022-10-20T10:08:51.517Z,11.65
2022-10-20T10:11:21.401Z,10.68
2022-10-20T10:13:51.287Z,11.18
2022-10-20T10:16:21.786Z,11.70
2022-10-20T10:18:58.084Z,12.35
2022-10-20T10:21:25.799Z,11.82
2022-10-20T10:23:58.898Z,11.50
2022-10-20T10:26:47.557Z,11.63
2022-10-20T10:29:20.718Z,10.95
2022-10-20T10:31:53.539Z,11.48
2022-10-20T10:34:33.434Z,10.50
2022-10-20T10:37:01.417Z,13.45
2022-10-20T10:39:33.711Z,10.35
2022-10-20T10:42:27.557Z,10.90
2022-10-20T10:45:03.994Z,10.10
2022-10-20T10:47:53.632Z,11.30
2022-10-20T10:50:31.891Z,10.20
2022-10-20T10:53:09.989Z,9.93
2022-10-20T10:55:49.285Z,9.98
2022-10-20T10:58:27.365Z,8.52
2022-10-20T11:01:04.305Z,10.20
2022-10-20T11:03:50.103Z,9.52
2022-10-20T11:06:27.908Z,10.60
2022-10-20T11:09:20.777Z,9.95
2022-10-20T11:12:09.681Z,10.40
2022-10-20T11:14:48.085Z,9.07
2022-10-20T11:17:28.047Z,8.93
2022-10-20T11:20:19.508Z,8.48
2022-10-20T11:23:01.664Z,9.05
2022-10-20T11:25:34.175Z,8.10
2022-10-20T11:28:03.281Z,8.55
2022-10-20T11:30:34.937Z,8.82
2022-10-20T11:33:12.873Z,8.73
2022-10-20T11:35:46.457Z,8.15
2022-10-20T11:38:19.662Z,8.25
2022-10-20T11:40:53.633Z,7.45
2022-10-20T11:43:27.868Z,6.85
2022-10-20T11:45:58.813Z,7.20
2022-10-20T11:48:30.434Z,7.15
2022-10-20T11:51:13.175Z,7.53
2022-10-20T11:53:58.865Z,6.50
2022-10-20T11:56:43.893Z,7.32
2022-10-20T11:59:52.837Z,7.00
2022-10-20T12:02:44.096Z,7.40
2022-10-20T12:05:28.929Z,7.10
2022-10-20T12:08:36.170Z,6.78
2022-10-20T12:11:10.282Z,6.30
2022-10-20T12:13:46.602Z,7.32
2022-10-20T12:16:14.430Z,6.50
2022-10-20T12:19:06.725Z,6.57
2022-10-20T12:21:58.928Z,6.15
2022-10-20T12:24:32.497Z,6.22
2022-10-20T12:27:17.600Z,5.88
2022-10-20T12:29:57.097Z,7.13
2022-10-20T12:32:39.661Z,6.03
2022-10-20T12:35:53.702Z,6.07
2022-10-20T12:38:23.990Z,5.97
2022-10-20T12:40:57.817Z,5.50
2022-10-20T12:43:29.567Z,6.70
2022-10-20T12:46:07.579Z,5.22
2022-10-20T12:48:42.528Z,5.80
2022-10-20T12:51:20.342Z,5.32
2022-10-20T12:53:57.007Z,5.28
2022-10-20T12:56:32.953Z,5.55
2022-10-20T12:59:37.325Z,5.60
2022-10-20T13:02:35.865Z,5.68
2022-10-20T13:05:25.016Z,5.22
2022-10-20T13:08:04.911Z,5.45
2022-10-20T13:10:39.667Z,4.97
2022-10-20T13:13:46.591Z,5.40
2022-10-20T13:18:50.529Z,6.13
2022-10-20T13:21:26.420Z,4.85
2022-10-20T13:24:01.313Z,5.50
2022-10-20T13:26:32.817Z,5.35
2022-10-20T13:29:02.442Z,5.78
2022-10-20T13:31:35.847Z,5.70
2022-10-20T13:34:13.707Z,5.13
2022-10-20T13:37:07.328Z,5.95
2022-10-20T13:39:47.466Z,5.25
2022-10-20T13:42:27.620Z,5.90
2022-10-20T13:45:04.680Z,5.88
2022-10-20T13:47:51.823Z,5.30
2022-10-20T13:50:23.690Z,5.20
2022-10-20T13:52:55.300Z,5.90
2022-10-20T13:55:26.062Z,4.65
2022-10-20T13:57:57.856Z,5.10
2022-10-20T14:00:28.187Z,5.35
2022-10-20T14:03:01.413Z,6.07
2022-10-20T14:05:31.449Z,5.45
2022-10-20T14:08:04.674Z,5.18
2022-10-20T14:13:11.402Z,5.55
2022-10-20T14:15:39.249Z,6.38
2022-10-20T14:18:08.602Z,6.28
2022-10-20T14:20:38.642Z,6.30
2022-10-20T14:23:07.415Z,5.72
2022-10-20T14:25:35.396Z,6.32
2022-10-20T14:28:06.571Z,6.10
2022-10-20T14:30:40.115Z,6.75
2022-10-20T14:33:15.965Z,6.30
2022-10-20T14:35:46.374Z,6.85
2022-10-20T14:38:20.096Z,6.70
2022-10-20T14:40:53.772Z,8.02
2022-10-20T14:43:25.437Z,6.43
2022-10-20T14:45:56.542Z,6.40
2022-10-20T14:48:29.022Z,7.32
2022-10-20T14:50:56.874Z,7.50
2022-10-20T14:53:32.489Z,7.70
2022-10-20T14:58:55.505Z,7.03
2022-10-20T15:01:28.307Z,7.72
2022-10-20T15:04:15.700Z,8.20
2022-10-20T15:06:43.749Z,9.15
2022-10-20T15:09:21.047Z,8.02
2022-10-20T15:11:49.324Z,8.63
2022-10-20T15:14:18.112Z,7.20
2022-10-20T15:16:49.483Z,7.63
2022-10-20T15:19:29.063Z,8.93
2022-10-20T15:22:01.296Z,8.63
2022-10-20T15:24:29.666Z,8.23
2022-10-20T15:27:04.015Z,7.90
2022-10-20T15:29:32.766Z,8.55
2022-10-20T15:32:01.899Z,8.27
2022-10-20T15:34:29.544Z,8.60
2022-10-20T15:36:57.254Z,9.30
2022-10-20T15:39:25.067Z,9.02
2022-10-20T15:41:53.909Z,9.18
2022-10-20T15:44:23.373Z,9.32
2022-10-20T15:46:53.482Z,9.25
2022-10-20T15:49:22.699Z,9.50
2022-10-20T15:51:51.441Z,9.02
2022-10-20T15:54:21.500Z,9.05
2022-10-20T15:56:49.628Z,9.90
2022-10-20T15:59:17.412Z,10.13
2022-10-20T16:01:45.202Z,9.38
2022-10-20T16:04:23.220Z,9.82
2022-10-20T16:06:57.609Z,8.82
2022-10-20T16:09:25.832Z,9.00
2022-10-20T16:11:53.787Z,9.27
2022-10-20T16:14:21.477Z,9.82
2022-10-20T16:16:51.179Z,10.15
2022-10-20T16:19:19.010Z,10.70
2022-10-20T16:21:46.784Z,8.98
2022-10-20T16:24:15.937Z,9.55
2022-10-20T16:26:43.783Z,10.25
2022-10-20T16:29:11.619Z,8.77
2022-10-20T16:31:39.454Z,11.05
2022-10-20T16:34:07.208Z,9.13
2022-10-20T16:36:36.616Z,9.75
2022-10-20T16:39:04.299Z,10.65
2022-10-20T16:41:33.323Z,9.35
2022-10-20T16:44:01.393Z,9.43
2022-10-20T16:46:29.293Z,8.30
2022-10-20T16:48:57.290Z,8.90
2022-10-20T16:51:25.159Z,7.53
2022-10-20T16:53:55.132Z,8.95
2022-10-20T16:56:25.504Z,9.50
2022-10-20T16:58:54.572Z,8.88
2022-10-20T17:01:23.573Z,9.40
2022-10-20T17:03:54.601Z,8.38
2022-10-20T17:06:24.476Z,8.98
2022-10-20T17:08:53.023Z,10.32
2022-10-20T17:11:22.660Z,10.00
2022-10-20T17:13:50.986Z,10.18
2022-10-20T17:16:24.859Z,10.20
2022-10-20T17:18:55.964Z,10.20
2022-10-20T17:21:23.708Z,9.90
2022-10-20T17:23:51.448Z,10.23
2022-10-20T17:26:21.196Z,8.95
2022-10-20T17:28:49.538Z,9.45
2022-10-20T17:31:18.864Z,9.50
2022-10-20T17:33:48.244Z,9.82
2022-10-20T17:36:16.318Z,9.15
2022-10-20T17:38:44.441Z,8.57
2022-10-20T17:41:14.156Z,9.45
2022-10-20T17:43:42.325Z,8.68
2022-10-20T17:46:12.885Z,9.60
2022-10-20T17:48:41.053Z,8.98
2022-10-20T17:51:14.342Z,9.23
2022-10-20T17:53:45.451Z,10.60
2022-10-20T17:56:14.771Z,10.93
2022-10-20T17:58:43.602Z,10.65
2022-10-20T18:01:15.270Z,10.55
2022-10-20T18:03:44.893Z,9.02
2022-10-20T18:06:15.817Z,9.23
2022-10-20T18:08:43.842Z,9.25
2022-10-20T18:11:12.611Z,9.73
2022-10-20T18:13:40.741Z,9.50
2022-10-20T18:16:09.759Z,9.40
2022-10-20T18:18:38.367Z,10.73
2022-10-20T18:21:06.897Z,10.85
2022-10-20T18:23:37.121Z,10.48
2022-10-20T18:26:10.423Z,10.80
2022-10-20T18:28:42.093Z,10.63
2022-10-20T18:31:17.048Z,11.45
2022-10-20T18:33:44.998Z,10.80
2022-10-20T18:36:15.606Z,11.38
2022-10-20T18:38:46.437Z,11.18
2022-10-20T18:41:15.515Z,11.35
2022-10-20T18:43:45.360Z,13.65
2022-10-20T18:46:14.107Z,13.15
2022-10-20T18:48:43.203Z,12.32
2022-10-20T18:51:13.756Z,12.95
2022-10-20T18:53:42.670Z,12.35
2022-10-20T18:56:14.291Z,12.25
2022-10-20T18:58:43.795Z,12.45
2022-10-20T19:01:13.928Z,15.25
2022-10-20T19:03:42.840Z,13.27
2022-10-20T19:06:13.905Z,12.65
2022-10-20T19:08:42.427Z,13.75
2022-10-20T19:11:13.529Z,12.52
2022-10-20T19:13:41.311Z,11.55
2022-10-20T19:16:11.241Z,10.73
2022-10-20T19:18:40.571Z,12.65
2022-10-20T19:21:09.492Z,12.00
2022-10-20T19:23:39.785Z,11.30
2022-10-20T19:26:09.787Z,11.52
2022-10-20T19:28:40.483Z,10.90
2022-10-20T19:31:20.954Z,13.88
2022-10-20T19:33:50.260Z,14.52
2022-10-20T19:36:18.340Z,13.90
2022-10-20T19:38:46.081Z,13.90
2022-10-20T19:41:13.849Z,12.63
2022-10-20T19:43:43.366Z,13.00
2022-10-20T19:46:13.989Z,12.23
2022-10-20T19:48:41.980Z,11.30
2022-10-20T19:51:10.533Z,11.30
2022-10-20T19:53:39.735Z,11.35
2022-10-20T19:56:08.782Z,13.00
2022-10-20T19:58:40.256Z,13.45
2022-10-20T20:01:12.033Z,11.82
2022-10-20T20:03:40.025Z,11.88
2022-10-20T20:06:11.027Z,12.77
2022-10-20T20:08:39.248Z,12.45
2022-10-20T20:11:07.401Z,11.77
2022-10-20T20:13:35.442Z,12.20
2022-10-20T20:16:07.402Z,12.23
2022-10-20T20:18:37.374Z,12.85
2022-10-20T20:21:06.905Z,11.70
2022-10-20T20:23:47.627Z,11.80
2022-10-20T20:26:24.116Z,11.88
2022-10-20T20:28:53.363Z,10.82
2022-10-20T20:31:21.957Z,11.88
2022-10-20T20:33:52.020Z,11.25
2022-10-20T20:36:19.874Z,12.35
2022-10-20T20:38:48.048Z,11.15
2022-10-20T20:41:17.970Z,11.93
2022-10-20T20:43:46.162Z,11.85
2022-10-20T20:46:16.019Z,12.20
2022-10-20T20:48:44.449Z,13.18
2022-10-20T20:51:14.678Z,12.90
2022-10-20T20:53:43.072Z,14.27
2022-10-20T20:56:13.141Z,12.10
2022-10-20T20:58:42.105Z,11.35
2022-10-20T21:01:13.945Z,12.32
2022-10-20T21:03:43.517Z,11.95
2022-10-20T21:06:15.608Z,11.98
2022-10-20T21:08:45.226Z,12.25
2022-10-20T21:11:15.115Z,11.98
2022-10-20T21:13:43.838Z,12.25
2022-10-20T21:16:13.605Z,12.45
2022-10-20T21:18:42.554Z,12.38
2022-10-20T21:21:13.809Z,11.45
2022-10-20T21:23:43.458Z,11.93
2022-10-20T21:26:13.488Z,13.40
2022-10-20T21:28:41.753Z,12.98
2022-10-20T21:31:11.617Z,13.57
2022-10-20T21:33:41.234Z,13.77
2022-10-20T21:36:10.756Z,14.60
2022-10-20T21:38:40.341Z,14.07
2022-10-20T21:41:11.529Z,13.48
2022-10-20T21:43:42.059Z,13.32
2022-10-20T21:46:15.443Z,13.63
2022-10-20T21:48:44.575Z,13.55
2022-10-20T21:51:14.327Z,13.40
2022-10-20T21:53:42.181Z,12.48
2022-10-20T21:56:13.533Z,12.07
2022-10-20T21:58:41.409Z,12.90
2022-10-20T22:01:10.761Z,12.30
2022-10-20T22:03:39.438Z,11.55
2022-10-20T22:06:08.035Z,12.25
2022-10-20T22:08:36.890Z,12.02
2022-10-20T22:11:05.974Z,13.98
2022-10-20T22:13:35.369Z,13.55
2022-10-20T22:16:05.920Z,14.35
2022-10-20T22:18:33.873Z,14.32
2022-10-20T22:21:04.290Z,14.65
2022-10-20T22:23:32.015Z,15.30
2022-10-20T22:26:00.283Z,15.05
2022-10-20T22:28:28.185Z,14.25
2022-10-20T22:30:57.247Z,14.85
2022-10-20T22:33:25.019Z,13.38
2022-10-20T22:35:52.823Z,12.13
2022-10-20T22:38:20.487Z,12.00
2022-10-20T22:40:48.175Z,10.68
2022-10-20T22:43:15.844Z,9.52
2022-10-20T22:45:43.504Z,9.32
2022-10-20T22:48:12.519Z,9.65
2022-10-20T22:50:40.251Z,11.00
2022-10-20T22:53:07.957Z,12.85
2022-10-20T22:55:35.597Z,12.82
2022-10-20T22:58:03.486Z,12.73
2022-10-20T23:07:21.353Z,11.45
2022-10-20T23:09:49.151Z,13.57
2022-10-20T23:12:16.842Z,12.73
2022-10-20T23:14:45.021Z,11.55
2022-10-20T23:17:12.666Z,11.93
2022-10-20T23:19:40.393Z,11.82
2022-10-20T23:22:09.566Z,12.00
2022-10-20T23:24:37.223Z,12.73
2022-10-20T23:27:04.890Z,12.05
2022-10-20T23:29:32.596Z,12.88
2022-10-20T23:32:00.343Z,12.48
2022-10-20T23:34:31.207Z,13.02
2022-10-20T23:36:59.004Z,12.35
2022-10-20T23:39:28.038Z,12.75
2022-10-20T23:41:55.826Z,13.20
2022-10-20T23:44:23.502Z,13.75
2022-10-20T23:46:51.997Z,13.60
2022-10-20T23:49:19.730Z,13.02
2022-10-20T23:51:47.390Z,13.85
2022-10-20T23:54:15.098Z,12.63
2022-10-20T23:56:44.324Z,13.77
2022-10-20T23:59:11.983Z,13.00
